createdAt,value
2023-03-02T00:01:48.463Z,-1.05
2023-03-02T00:04:20.944Z,-0.95
2023-03-02T00:06:49.078Z,-0.89
2023-03-02T00:09:16.382Z,-0.82
2023-03-02T00:11:43.067Z,-0.81
2023-03-02T00:14:09.571Z,-0.80
2023-03-02T00:16:36.114Z,-0.80
2023-03-02T00:19:05.982Z,-0.80
2023-03-02T00:21:32.637Z,-0.79
2023-03-02T00:24:02.419Z,-0.88
2023-03-02T00:26:40.525Z,-0.90
2023-03-02T00:29:07.037Z,-0.90
2023-03-02T00:31:38.089Z,-0.86
2023-03-02T00:34:06.679Z,-0.88
2023-03-02T00:36:33.168Z,-0.84
2023-03-02T00:38:59.738Z,-0.82
2023-03-02T00:41:26.201Z,-0.86
2023-03-02T00:43:52.899Z,-0.89
2023-03-02T00:46:22.231Z,-0.88
2023-03-02T00:48:49.607Z,-0.84
2023-03-02T00:51:19.370Z,-0.84
2023-03-02T00:53:46.349Z,-0.84
2023-03-02T00:56:13.407Z,-1.02
2023-03-02T00:58:41.433Z,-1.09
2023-03-02T01:01:11.491Z,-1.08
2023-03-02T01:03:38.388Z,-1.07
2023-03-02T01:06:06.395Z,-1.06
2023-03-02T01:08:38.411Z,-1.04
2023-03-02T01:11:20.769Z,-1.06
2023-03-02T01:13:47.737Z,-1.21
2023-03-02T01:16:15.187Z,-1.17
2023-03-02T01:18:41.714Z,-1.14
2023-03-02T01:21:11.575Z,-1.36
2023-03-02T01:23:38.023Z,-1.49
2023-03-02T01:26:04.656Z,-1.41
2023-03-02T01:28:33.896Z,-1.36
2023-03-02T01:31:04.329Z,-1.38
2023-03-02T01:33:31.511Z,-1.32
2023-03-02T01:35:58.135Z,-1.42
2023-03-02T01:38:24.707Z,-1.45
2023-03-02T01:40:51.280Z,-1.43
2023-03-02T01:43:18.621Z,-1.39
2023-03-02T01:45:53.140Z,-1.37
2023-03-02T01:48:48.268Z,-1.35
2023-03-02T01:51:18.880Z,-1.30
2023-03-02T01:53:49.227Z,-1.26
2023-03-02T01:56:18.719Z,-1.30
2023-03-02T01:58:48.367Z,-1.30
2023-03-02T02:01:17.672Z,-1.28
2023-03-02T02:03:47.135Z,-1.27
2023-03-02T02:06:21.620Z,-1.32
2023-03-02T02:08:49.437Z,-1.27
2023-03-02T02:11:15.960Z,-1.32
2023-03-02T02:13:43.322Z,-1.31
2023-03-02T02:16:09.944Z,-1.26
2023-03-02T02:18:39.745Z,-1.24
2023-03-02T02:21:07.791Z,-1.21
2023-03-02T02:23:49.690Z,-1.23
2023-03-02T02:26:21.044Z,-1.20
2023-03-02T02:28:57.791Z,-1.23
2023-03-02T02:31:40.400Z,-1.27
2023-03-02T02:34:11.392Z,-1.27
2023-03-02T02:36:42.414Z,-1.25
2023-03-02T02:39:18.024Z,-1.28
2023-03-02T02:41:47.575Z,-1.28
2023-03-02T02:44:17.340Z,-1.27
2023-03-02T02:46:50.304Z,-1.25
2023-03-02T02:49:35.995Z,-1.19
2023-03-02T02:52:04.344Z,-1.24
2023-03-02T02:54:33.064Z,-1.26
2023-03-02T02:57:02.586Z,-1.34
2023-03-02T02:59:33.313Z,-1.47
2023-03-02T03:02:00.161Z,-1.46
2023-03-02T03:04:30.399Z,-1.47
2023-03-02T03:06:59.627Z,-1.45
2023-03-02T03:09:27.403Z,-1.45
2023-03-02T03:12:19.168Z,-1.44
2023-03-02T03:14:46.434Z,-1.49
2023-03-02T03:17:13.764Z,-1.50
2023-03-02T03:19:45.597Z,-1.47
2023-03-02T03:22:15.070Z,-1.51
2023-03-02T03:24:43.427Z,-1.52
2023-03-02T03:27:12.540Z,-1.56
2023-03-02T03:29:41.219Z,-1.58
2023-03-02T03:32:07.871Z,-1.55
2023-03-02T03:34:40.871Z,-1.56
2023-03-02T03:37:10.108Z,-1.70
2023-03-02T03:39:36.666Z,-1.95
2023-03-02T03:42:03.808Z,-1.98
2023-03-02T03:44:30.402Z,-1.86
2023-03-02T03:46:57.018Z,-1.91
2023-03-02T03:49:23.817Z,-1.84
2023-03-02T03:51:50.276Z,-1.78
2023-03-02T03:54:16.942Z,-1.69
2023-03-02T03:56:47.579Z,-1.72
2023-03-02T03:59:17.865Z,-1.76
2023-03-02T04:01:53.608Z,-1.80
2023-03-02T04:04:29.449Z,-1.81
2023-03-02T04:06:56.268Z,-1.87
2023-03-02T04:09:23.299Z,-1.83
2023-03-02T04:11:53.423Z,-1.97
2023-03-02T04:14:21.546Z,-2.00
2023-03-02T04:16:48.128Z,-1.88
2023-03-02T04:19:15.179Z,-1.76
2023-03-02T04:21:48.424Z,-1.68
2023-03-02T04:24:15.858Z,-1.77
2023-03-02T04:26:43.849Z,-1.77
2023-03-02T04:29:12.083Z,-1.90
2023-03-02T04:31:38.866Z,-2.08
2023-03-02T04:34:05.594Z,-2.25
2023-03-02T04:36:34.627Z,-2.15
2023-03-02T04:39:01.553Z,-2.15
2023-03-02T04:41:28.078Z,-2.17
2023-03-02T04:43:54.606Z,-2.07
2023-03-02T04:46:24.661Z,-1.92
2023-03-02T04:48:51.984Z,-1.96
2023-03-02T04:51:25.421Z,-2.07
2023-03-02T04:53:53.622Z,-2.21
2023-03-02T04:56:21.171Z,-2.08
2023-03-02T04:58:48.381Z,-2.17
2023-03-02T05:01:16.891Z,-2.32
2023-03-02T05:03:43.397Z,-2.29
2023-03-02T05:06:10.600Z,-2.33
2023-03-02T05:08:37.916Z,-2.33
2023-03-02T05:11:06.344Z,-2.31
2023-03-02T05:13:32.802Z,-2.32
2023-03-02T05:15:59.367Z,-2.33
2023-03-02T05:18:31.991Z,-2.31
2023-03-02T05:20:58.501Z,-2.26
2023-03-02T05:23:31.541Z,-2.29
2023-03-02T05:25:58.044Z,-2.23
2023-03-02T05:28:25.874Z,-2.20
2023-03-02T05:30:53.334Z,-2.17
2023-03-02T05:33:20.547Z,-2.14
2023-03-02T05:35:47.869Z,-2.08
2023-03-02T05:38:14.865Z,-2.04
2023-03-02T05:40:45.167Z,-2.14
2023-03-02T05:43:16.340Z,-2.16
2023-03-02T05:45:43.133Z,-2.09
2023-03-02T05:48:12.080Z,-2.10
2023-03-02T05:50:38.597Z,-2.13
2023-03-02T05:53:05.281Z,-2.11
2023-03-02T05:55:36.792Z,-2.16
2023-03-02T05:58:06.369Z,-2.22
2023-03-02T06:00:32.930Z,-2.21
2023-03-02T06:02:59.495Z,-2.17
2023-03-02T06:05:26.055Z,-2.11
2023-03-02T06:07:52.576Z,-2.12
2023-03-02T06:10:19.165Z,-2.11
2023-03-02T06:12:45.731Z,-2.11
2023-03-02T06:15:12.278Z,-2.06
2023-03-02T06:17:38.828Z,-2.01
2023-03-02T06:20:10.271Z,-1.92
2023-03-02T06:22:48.164Z,-1.95
2023-03-02T06:25:18.826Z,-1.96
2023-03-02T06:27:46.133Z,-1.97
2023-03-02T06:30:17.307Z,-1.93
2023-03-02T06:32:44.455Z,-1.88
2023-03-02T06:35:12.400Z,-1.87
2023-03-02T06:37:39.140Z,-1.85
2023-03-02T06:40:10.241Z,-1.84
2023-03-02T06:42:38.221Z,-1.78
2023-03-02T06:45:06.120Z,-1.73
2023-03-02T06:47:33.394Z,-1.69
2023-03-02T06:50:00.290Z,-1.71
2023-03-02T06:52:27.597Z,-1.71
2023-03-02T06:54:54.911Z,-1.75
2023-03-02T06:57:21.430Z,-1.68
2023-03-02T06:59:47.883Z,-1.62
2023-03-02T07:02:14.458Z,-1.58
2023-03-02T07:04:41.004Z,-1.58
2023-03-02T07:07:07.521Z,-1.50
2023-03-02T07:09:34.460Z,-1.41
2023-03-02T07:12:00.999Z,-1.38
2023-03-02T07:14:27.577Z,-1.36
2023-03-02T07:16:56.667Z,-1.30
2023-03-02T07:19:23.375Z,-1.21
2023-03-02T07:21:49.823Z,-1.10
2023-03-02T07:24:16.348Z,-1.03
2023-03-02T07:26:42.857Z,-0.99
2023-03-02T07:29:09.374Z,-1.02
2023-03-02T07:31:35.857Z,-1.04
2023-03-02T07:34:05.415Z,-1.06
2023-03-02T07:36:31.950Z,-1.06
2023-03-02T07:38:58.404Z,-1.07
2023-03-02T07:41:24.914Z,-1.04
2023-03-02T07:43:51.366Z,-1.03
2023-03-02T07:46:17.921Z,-1.06
2023-03-02T07:48:44.411Z,-1.01
2023-03-02T07:51:10.875Z,-0.98
2023-03-02T07:53:38.599Z,-0.94
2023-03-02T07:56:10.599Z,-0.97
2023-03-02T07:58:37.857Z,-1.00
2023-03-02T08:01:04.905Z,-0.97
2023-03-02T08:03:31.407Z,-0.94
2023-03-02T08:05:57.973Z,-0.89
2023-03-02T08:08:24.518Z,-0.84
2023-03-02T08:10:50.964Z,-0.78
2023-03-02T08:13:17.527Z,-0.67
2023-03-02T08:15:44.112Z,-0.54
2023-03-02T08:18:10.567Z,-0.42
2023-03-02T08:20:40.109Z,-0.34
2023-03-02T08:23:07.243Z,-0.21
2023-03-02T08:25:33.934Z,-0.12
2023-03-02T08:28:00.384Z,-0.07
2023-03-02T08:30:26.974Z,-0.03
2023-03-02T08:32:53.472Z,0.12
2023-03-02T08:35:22.088Z,0.22
2023-03-02T08:37:48.750Z,0.43
2023-03-02T08:40:15.341Z,0.63
2023-03-02T08:42:43.009Z,0.61
2023-03-02T08:45:09.927Z,0.66
2023-03-02T08:47:36.426Z,0.74
2023-03-02T08:50:03.023Z,0.79
2023-03-02T08:52:29.480Z,0.88
2023-03-02T08:54:56.063Z,0.93
2023-03-02T08:57:22.552Z,1.05
2023-03-02T08:59:49.123Z,1.12
2023-03-02T09:02:18.528Z,1.20
2023-03-02T09:04:45.051Z,1.27
2023-03-02T09:07:11.589Z,1.36
2023-03-02T09:09:38.081Z,1.48
2023-03-02T09:12:04.581Z,1.51
2023-03-02T09:14:31.057Z,1.54
2023-03-02T09:16:57.602Z,1.63
2023-03-02T09:19:27.050Z,1.66
2023-03-02T09:21:53.527Z,1.74
2023-03-02T09:24:20.073Z,1.83
2023-03-02T09:26:46.680Z,2.16
2023-03-02T09:29:13.408Z,2.26
2023-03-02T09:31:39.924Z,2.45
2023-03-02T09:34:07.275Z,2.42
2023-03-02T09:36:34.541Z,2.36
2023-03-02T09:39:01.291Z,2.42
2023-03-02T09:42:15.539Z,2.28
2023-03-02T09:45:03.237Z,2.35
2023-03-02T09:47:41.665Z,2.25
2023-03-02T09:50:25.327Z,2.38
2023-03-02T09:53:22.528Z,2.52
2023-03-02T09:55:54.773Z,2.63
2023-03-02T09:58:25.596Z,2.82
2023-03-02T10:00:52.272Z,2.79
2023-03-02T10:03:27.208Z,2.75
2023-03-02T10:05:55.471Z,2.62
2023-03-02T10:08:28.246Z,2.52
2023-03-02T10:11:13.144Z,2.74
2023-03-02T10:13:52.359Z,2.78
2023-03-02T10:16:35.019Z,2.87
2023-03-02T10:19:42.227Z,3.01
2023-03-02T10:22:14.446Z,3.02
2023-03-02T10:24:55.953Z,3.02
2023-03-02T10:27:48.205Z,3.17
2023-03-02T10:30:25.541Z,3.18
2023-03-02T10:32:52.816Z,3.09
2023-03-02T10:35:23.170Z,3.09
2023-03-02T10:38:00.253Z,3.12
2023-03-02T10:40:42.048Z,3.19
2023-03-02T10:43:41.471Z,3.31
2023-03-02T10:46:11.582Z,3.39
2023-03-02T10:48:52.377Z,3.65
2023-03-02T10:51:23.378Z,3.75
2023-03-02T10:53:49.862Z,3.72
2023-03-02T10:56:21.554Z,3.69
2023-03-02T10:58:48.292Z,3.65
2023-03-02T11:01:19.112Z,3.61
2023-03-02T11:03:56.638Z,3.58
2023-03-02T11:06:24.123Z,3.69
2023-03-02T11:09:05.993Z,3.69
2023-03-02T11:11:33.330Z,3.75
2023-03-02T11:14:15.895Z,3.84
2023-03-02T11:16:42.892Z,3.92
2023-03-02T11:19:38.209Z,4.03
2023-03-02T11:22:30.037Z,4.09
2023-03-02T11:24:59.255Z,3.97
2023-03-02T11:27:29.746Z,3.90
2023-03-02T11:30:01.060Z,3.95
2023-03-02T11:32:30.905Z,3.87
2023-03-02T11:35:02.780Z,3.90
2023-03-02T11:37:45.249Z,3.94
2023-03-02T11:40:33.204Z,3.99
2023-03-02T11:43:01.015Z,4.03
2023-03-02T11:45:38.164Z,4.13
2023-03-02T11:48:36.881Z,4.24
2023-03-02T11:51:06.696Z,4.47
2023-03-02T11:53:39.390Z,4.38
2023-03-02T11:56:06.163Z,4.52
2023-03-02T11:58:33.574Z,4.51
2023-03-02T12:01:02.035Z,4.51
2023-03-02T12:03:31.428Z,4.57
2023-03-02T12:06:18.643Z,4.64
2023-03-02T12:08:48.395Z,4.68
2023-03-02T12:11:17.941Z,4.57
2023-03-02T12:13:50.332Z,4.69
2023-03-02T12:16:24.329Z,4.84
2023-03-02T12:18:52.987Z,5.04
2023-03-02T12:21:21.296Z,5.18
2023-03-02T12:23:50.849Z,5.18
2023-03-02T12:26:20.103Z,5.14
2023-03-02T12:28:59.108Z,5.15
2023-03-02T12:31:47.475Z,5.15
2023-03-02T12:34:35.381Z,5.23
2023-03-02T12:37:08.549Z,5.21
2023-03-02T12:39:44.940Z,5.26
2023-03-02T12:42:49.912Z,5.24
2023-03-02T12:45:25.061Z,5.18
2023-03-02T12:48:01.348Z,5.25
2023-03-02T12:50:33.574Z,5.25
2023-03-02T12:53:05.789Z,5.31
2023-03-02T12:55:34.353Z,5.27
2023-03-02T12:58:02.166Z,5.22
2023-03-02T13:00:32.212Z,5.26
2023-03-02T13:03:02.017Z,5.25
2023-03-02T13:05:35.103Z,5.30
2023-03-02T13:08:05.942Z,5.32
2023-03-02T13:10:40.428Z,5.35
2023-03-02T13:13:17.597Z,5.32
2023-03-02T13:15:52.239Z,5.27
2023-03-02T13:18:21.059Z,5.34
2023-03-02T13:20:49.123Z,5.25
2023-03-02T13:23:17.444Z,5.28
2023-03-02T13:25:52.961Z,5.40
2023-03-02T13:28:28.225Z,5.41
2023-03-02T13:31:05.892Z,5.36
2023-03-02T13:33:35.553Z,5.28
2023-03-02T13:36:02.343Z,5.31
2023-03-02T13:38:38.548Z,5.38
2023-03-02T13:41:05.499Z,5.33
2023-03-02T13:43:42.835Z,5.24
2023-03-02T13:46:12.009Z,5.26
2023-03-02T13:48:38.489Z,5.29
2023-03-02T13:51:19.002Z,5.31
2023-03-02T13:54:04.578Z,5.24
2023-03-02T13:56:40.420Z,5.23
2023-03-02T13:59:15.058Z,5.20
2023-03-02T14:01:42.127Z,5.22
2023-03-02T14:04:11.888Z,5.20
2023-03-02T14:06:38.447Z,5.15
2023-03-02T14:09:05.625Z,5.08
2023-03-02T14:11:37.178Z,5.19
2023-03-02T14:14:06.304Z,5.20
2023-03-02T14:16:36.010Z,5.15
2023-03-02T14:19:03.561Z,5.11
2023-03-02T14:21:30.313Z,5.04
2023-03-02T14:23:58.838Z,4.99
2023-03-02T14:26:37.025Z,4.87
2023-03-02T14:29:22.452Z,4.84
2023-03-02T14:31:49.216Z,4.74
2023-03-02T14:34:16.779Z,4.70
2023-03-02T14:36:50.003Z,4.68
2023-03-02T14:39:37.704Z,4.67
2023-03-02T14:42:05.682Z,4.64
2023-03-02T14:44:32.895Z,4.64
2023-03-02T14:46:59.464Z,4.66
2023-03-02T14:49:25.963Z,4.65
2023-03-02T14:52:03.513Z,4.62
2023-03-02T14:54:42.576Z,4.60
2023-03-02T14:57:29.136Z,4.53
2023-03-02T14:59:59.905Z,4.49
2023-03-02T15:02:27.367Z,4.49
2023-03-02T15:04:56.811Z,4.45
2023-03-02T15:07:26.173Z,4.45
2023-03-02T15:09:52.745Z,4.40
2023-03-02T15:12:19.199Z,4.44
2023-03-02T15:14:45.668Z,4.46
2023-03-02T15:17:12.121Z,4.43
2023-03-02T15:19:38.614Z,4.36
2023-03-02T15:22:05.108Z,4.32
2023-03-02T15:24:33.396Z,4.29
2023-03-02T15:27:00.558Z,4.23
2023-03-02T15:29:28.764Z,4.20
2023-03-02T15:31:55.399Z,4.20
2023-03-02T15:34:22.042Z,4.13
2023-03-02T15:36:48.652Z,4.11
2023-03-02T15:39:16.424Z,4.08
2023-03-02T15:41:42.990Z,3.96
2023-03-02T15:44:22.239Z,3.93
2023-03-02T15:46:57.074Z,3.91
2023-03-02T15:49:27.265Z,3.84
2023-03-02T15:51:57.919Z,3.73
2023-03-02T15:54:26.179Z,3.71
2023-03-02T15:56:54.695Z,3.69
2023-03-02T15:59:26.369Z,3.70
2023-03-02T16:01:53.488Z,3.64
2023-03-02T16:04:20.011Z,3.52
2023-03-02T16:06:46.485Z,3.39
2023-03-02T16:09:12.984Z,3.33
2023-03-02T16:11:39.551Z,3.23
2023-03-02T16:14:06.050Z,3.14
2023-03-02T16:16:32.966Z,3.05
2023-03-02T16:18:59.574Z,2.90
2023-03-02T16:21:28.530Z,2.82
2023-03-02T16:24:04.563Z,2.74
2023-03-02T16:26:33.322Z,2.68
2023-03-02T16:29:04.361Z,2.64
2023-03-02T16:31:34.458Z,2.56
2023-03-02T16:34:06.931Z,2.50
2023-03-02T16:36:35.256Z,2.40
2023-03-02T16:39:01.904Z,2.35
2023-03-02T16:41:31.368Z,2.31
2023-03-02T16:43:59.018Z,2.29
2023-03-02T16:46:28.256Z,2.26
2023-03-02T16:48:55.620Z,2.25
2023-03-02T16:51:22.151Z,2.22
2023-03-02T16:53:49.197Z,2.21
2023-03-02T16:56:15.755Z,2.21
2023-03-02T16:58:42.551Z,2.16
2023-03-02T17:01:13.767Z,2.16
2023-03-02T17:03:40.779Z,2.15
2023-03-02T17:06:08.990Z,2.14
2023-03-02T17:08:35.835Z,2.10
2023-03-02T17:11:02.561Z,2.05
2023-03-02T17:13:29.064Z,2.07
2023-03-02T17:15:55.672Z,2.07
2023-03-02T17:18:22.564Z,2.05
2023-03-02T17:20:52.844Z,1.93
2023-03-02T17:23:19.456Z,1.89
2023-03-02T17:25:46.245Z,1.79
2023-03-02T17:28:14.876Z,1.66
2023-03-02T17:30:42.508Z,1.66
2023-03-02T17:33:09.338Z,1.58
2023-03-02T17:35:36.405Z,1.59
2023-03-02T17:38:03.335Z,1.59
2023-03-02T17:40:29.987Z,1.51
2023-03-02T17:42:57.845Z,1.41
2023-03-02T17:45:27.363Z,1.40
2023-03-02T17:47:55.341Z,1.40
2023-03-02T17:50:22.152Z,1.35
2023-03-02T17:52:48.805Z,1.33
2023-03-02T17:55:15.755Z,1.24
2023-03-02T17:57:42.285Z,1.27
2023-03-02T18:00:13.988Z,1.20
2023-03-02T18:02:40.505Z,1.27
2023-03-02T18:05:09.932Z,1.25
2023-03-02T18:07:37.431Z,1.26
2023-03-02T18:10:04.832Z,1.24
2023-03-02T18:12:31.368Z,1.20
2023-03-02T18:14:57.891Z,1.22
2023-03-02T18:17:24.359Z,1.21
2023-03-02T18:19:50.859Z,1.27
2023-03-02T18:22:17.378Z,1.24
2023-03-02T18:24:43.883Z,1.24
2023-03-02T18:27:10.432Z,1.19
2023-03-02T18:29:36.932Z,1.16
2023-03-02T18:32:03.728Z,1.18
2023-03-02T18:34:30.397Z,1.19
2023-03-02T18:36:56.883Z,1.16
2023-03-02T18:39:23.403Z,1.14
2023-03-02T18:41:49.932Z,1.14
2023-03-02T18:44:16.419Z,1.17
2023-03-02T18:46:43.050Z,1.15
2023-03-02T18:49:09.546Z,1.14
2023-03-02T18:51:36.065Z,1.08
2023-03-02T18:54:02.536Z,1.12
2023-03-02T18:56:29.070Z,1.16
2023-03-02T18:58:55.536Z,1.15
2023-03-02T19:01:25.277Z,1.12
2023-03-02T19:03:53.188Z,1.14
2023-03-02T19:06:20.588Z,1.16
2023-03-02T19:08:48.180Z,1.14
2023-03-02T19:11:14.779Z,1.13
2023-03-02T19:13:41.300Z,1.07
2023-03-02T19:16:08.033Z,1.06
2023-03-02T19:18:37.969Z,1.05
2023-03-02T19:21:05.256Z,1.03
2023-03-02T19:23:32.848Z,1.04
2023-03-02T19:25:59.967Z,1.06
2023-03-02T19:28:27.483Z,1.02
2023-03-02T19:30:54.000Z,0.95
2023-03-02T19:33:20.578Z,0.88
2023-03-02T19:35:47.092Z,0.89
2023-03-02T19:38:13.687Z,0.83
2023-03-02T19:40:40.563Z,0.75
2023-03-02T19:43:07.121Z,0.78
2023-03-02T19:45:34.915Z,0.77
2023-03-02T19:48:03.320Z,0.86
2023-03-02T19:50:30.372Z,0.94
2023-03-02T19:52:58.026Z,0.95
2023-03-02T19:55:26.107Z,0.95
2023-03-02T19:57:59.533Z,0.93
2023-03-02T20:00:28.442Z,0.98
2023-03-02T20:02:55.504Z,1.03
2023-03-02T20:05:22.032Z,1.12
2023-03-02T20:07:49.242Z,1.02
2023-03-02T20:10:31.202Z,0.95
2023-03-02T20:12:59.572Z,1.00
2023-03-02T20:15:28.253Z,1.02
2023-03-02T20:17:59.356Z,1.13
2023-03-02T20:20:26.941Z,1.21
2023-03-02T20:22:53.765Z,1.15
2023-03-02T20:25:23.587Z,1.14
2023-03-02T20:27:53.780Z,1.08
2023-03-02T20:30:32.038Z,1.08
2023-03-02T20:32:59.520Z,1.02
2023-03-02T20:35:29.567Z,0.97
2023-03-02T20:37:57.838Z,0.96
2023-03-02T20:40:26.217Z,0.95
2023-03-02T20:42:53.161Z,1.00
2023-03-02T20:45:20.385Z,1.03
2023-03-02T20:47:47.837Z,1.03
2023-03-02T20:50:21.330Z,1.08
2023-03-02T20:52:47.943Z,1.09
2023-03-02T20:55:15.053Z,1.02
2023-03-02T20:57:41.563Z,0.97
2023-03-02T21:00:13.675Z,0.91
2023-03-02T21:02:40.335Z,0.85
2023-03-02T21:05:07.201Z,0.83
2023-03-02T21:07:35.746Z,0.83
2023-03-02T21:10:10.761Z,0.98
2023-03-02T21:12:37.552Z,0.94
2023-03-02T21:15:05.143Z,0.83
2023-03-02T21:17:31.862Z,0.92
2023-03-02T21:19:58.453Z,0.88
2023-03-02T21:22:25.128Z,0.84
2023-03-02T21:24:53.030Z,0.80
2023-03-02T21:27:19.912Z,0.79
2023-03-02T21:29:46.406Z,0.71
2023-03-02T21:32:12.975Z,0.69
2023-03-02T21:34:39.485Z,0.73
2023-03-02T21:37:06.056Z,0.82
2023-03-02T21:39:32.676Z,0.77
2023-03-02T21:41:59.245Z,0.76
2023-03-02T21:44:25.825Z,0.71
2023-03-02T21:46:52.283Z,0.68
2023-03-02T21:49:21.149Z,0.57
2023-03-02T21:51:49.863Z,0.54
2023-03-02T21:54:16.510Z,0.56
2023-03-02T21:56:43.574Z,0.52
2023-03-02T21:59:11.140Z,0.37
2023-03-02T22:01:37.634Z,0.36
2023-03-02T22:04:04.414Z,0.35
2023-03-02T22:06:33.061Z,0.32
2023-03-02T22:09:01.353Z,0.28
2023-03-02T22:11:34.865Z,0.34
2023-03-02T22:14:10.060Z,0.27
2023-03-02T22:16:39.719Z,0.29
2023-03-02T22:19:30.292Z,0.26
2023-03-02T22:22:00.181Z,0.16
2023-03-02T22:24:29.017Z,0.20
2023-03-02T22:27:04.522Z,0.27
2023-03-02T22:29:49.991Z,0.32
2023-03-02T22:32:31.089Z,0.28
2023-03-02T22:35:08.458Z,0.22
2023-03-02T22:37:35.058Z,0.24
2023-03-02T22:40:07.505Z,0.21
2023-03-02T22:42:34.064Z,0.21
2023-03-02T22:45:15.975Z,0.19
2023-03-02T22:47:44.120Z,0.18
2023-03-02T22:50:37.806Z,0.19
2023-03-02T22:53:19.745Z,0.17
2023-03-02T22:55:47.781Z,0.17
2023-03-02T22:58:20.002Z,0.14
2023-03-02T23:00:47.928Z,0.12
2023-03-02T23:03:18.698Z,0.13
2023-03-02T23:05:49.086Z,0.21
2023-03-02T23:08:27.000Z,0.13
2023-03-02T23:10:57.807Z,0.14
2023-03-02T23:13:31.166Z,0.05
2023-03-02T23:15:57.728Z,0.05
2023-03-02T23:18:29.735Z,0.00
2023-03-02T23:20:56.212Z,-0.07
2023-03-02T23:23:24.582Z,-0.09
2023-03-02T23:25:51.095Z,-0.06
2023-03-02T23:28:17.632Z,-0.09
2023-03-02T23:30:45.308Z,-0.11
2023-03-02T23:33:11.866Z,-0.13
2023-03-02T23:35:38.450Z,-0.09
2023-03-02T23:38:04.986Z,-0.08
2023-03-02T23:40:31.544Z,-0.09
2023-03-02T23:42:58.139Z,-0.20
2023-03-02T23:45:24.730Z,-0.28
2023-03-02T23:47:51.259Z,-0.27
2023-03-02T23:50:17.803Z,-0.28
2023-03-02T23:52:44.259Z,-0.39
2023-03-02T23:55:11.327Z,-0.32
2023-03-02T23:57:37.813Z,-0.30
